createdAt,value
2022-11-03T00:00:24.306Z,964.95
2022-11-03T00:01:24.344Z,964.99
2022-11-03T00:02:24.659Z,964.96
2022-11-03T00:03:24.426Z,964.97
2022-11-03T00:04:24.438Z,964.93
2022-11-03T00:05:24.370Z,964.97
2022-11-03T00:06:24.452Z,964.95
2022-11-03T00:08:25.815Z,964.94
2022-11-03T00:09:24.328Z,964.93
2022-11-03T00:10:24.405Z,964.96
2022-11-03T00:11:24.464Z,964.95
2022-11-03T00:12:24.448Z,964.97
2022-11-03T00:13:24.313Z,964.99
2022-11-03T00:14:25.303Z,965.01
2022-11-03T00:15:24.462Z,965
2022-11-03T00:16:24.403Z,964.95
2022-11-03T00:17:24.478Z,965
2022-11-03T00:18:24.441Z,964.96
2022-11-03T00:20:25.401Z,964.92
2022-11-03T00:21:24.501Z,964.94
2022-11-03T00:23:24.487Z,964.93
2022-11-03T00:24:24.355Z,964.91
2022-11-03T00:25:24.418Z,964.84
2022-11-03T00:26:24.490Z,964.85
2022-11-03T00:27:24.459Z,964.81
2022-11-03T00:28:24.436Z,964.77
2022-11-03T00:29:24.396Z,964.8
2022-11-03T00:30:24.491Z,964.73
2022-11-03T00:31:24.428Z,964.71
2022-11-03T00:33:24.511Z,964.69
2022-11-03T00:34:24.434Z,964.72
2022-11-03T00:35:24.371Z,964.68
2022-11-03T00:36:24.366Z,964.64
2022-11-03T00:37:24.536Z,964.65
2022-11-03T00:38:24.385Z,964.61
2022-11-03T00:40:24.387Z,964.62
2022-11-03T00:42:24.474Z,964.61
2022-11-03T00:43:24.537Z,964.62
2022-11-03T00:44:24.397Z,964.59
2022-11-03T00:45:24.481Z,964.58
2022-11-03T00:46:24.394Z,964.57
2022-11-03T00:47:24.545Z,964.53
2022-11-03T00:48:24.514Z,964.57
2022-11-03T00:49:25.577Z,964.58
2022-11-03T00:50:24.531Z,964.6
2022-11-03T00:51:24.484Z,964.58
2022-11-03T00:52:24.407Z,964.56
2022-11-03T00:54:24.409Z,964.52
2022-11-03T00:55:24.410Z,964.53
2022-11-03T00:56:24.528Z,964.48
2022-11-03T00:57:24.538Z,964.44
2022-11-03T00:59:24.501Z,964.4
2022-11-03T01:00:24.510Z,964.39
2022-11-03T01:01:24.496Z,964.35
2022-11-03T01:03:24.520Z,964.36
2022-11-03T01:04:24.514Z,964.33
2022-11-03T01:06:24.610Z,964.34
2022-11-03T01:09:24.535Z,964.33
2022-11-03T01:10:24.466Z,964.32
2022-11-03T01:11:24.451Z,964.34
2022-11-03T01:12:24.450Z,964.3
2022-11-03T01:14:24.471Z,964.29
2022-11-03T01:15:24.458Z,964.25
2022-11-03T01:16:24.590Z,964.3
2022-11-03T01:17:24.575Z,964.23
2022-11-03T01:18:24.473Z,964.26
2022-11-03T01:20:24.487Z,964.24
2022-11-03T01:21:24.626Z,964.26
2022-11-03T01:22:24.657Z,964.25
2022-11-03T01:23:24.608Z,964.23
2022-11-03T01:25:24.608Z,964.28
2022-11-03T01:26:24.581Z,964.26
2022-11-03T01:27:24.492Z,964.28
2022-11-03T01:28:24.497Z,964.25
2022-11-03T01:29:24.493Z,964.28
2022-11-03T01:30:24.637Z,964.26
2022-11-03T01:31:24.600Z,964.22
2022-11-03T01:32:24.588Z,964.26
2022-11-03T01:33:24.494Z,964.22
2022-11-03T01:34:24.512Z,964.17
2022-11-03T01:35:24.600Z,964.2
2022-11-03T01:36:24.640Z,964.18
2022-11-03T01:37:24.615Z,964.2
2022-11-03T01:39:24.689Z,964.22
2022-11-03T01:40:24.618Z,964.23
2022-11-03T01:41:24.518Z,964.21
2022-11-03T01:42:24.535Z,964.23
2022-11-03T01:44:24.617Z,964.21
2022-11-03T01:45:24.526Z,964.2
2022-11-03T01:46:24.621Z,964.19
2022-11-03T01:47:24.690Z,964.2
2022-11-03T01:48:24.669Z,964.19
2022-11-03T01:49:24.670Z,964.11
2022-11-03T01:50:24.545Z,964.17
2022-11-03T01:51:24.690Z,964.09
2022-11-03T01:52:24.640Z,964.05
2022-11-03T01:53:25.866Z,964.04
2022-11-03T01:54:24.557Z,964.07
2022-11-03T01:55:24.663Z,964.03
2022-11-03T01:56:24.700Z,964.15
2022-11-03T01:57:24.693Z,964.06
2022-11-03T01:58:24.637Z,964.12
2022-11-03T01:59:24.707Z,964.06
2022-11-03T16:57:18.380Z,953.41
2022-11-03T16:58:18.305Z,953.21
2022-11-03T16:59:19.248Z,953.08
2022-11-03T17:00:18.240Z,953.05
2022-11-03T17:01:18.325Z,953
2022-11-03T17:02:18.277Z,952.91
2022-11-03T17:03:18.364Z,952.88
2022-11-03T17:04:18.247Z,952.93
2022-11-03T17:05:18.248Z,952.92
2022-11-03T17:06:18.361Z,952.91
2022-11-03T17:07:18.252Z,952.89
2022-11-03T17:08:46.614Z,952.87
2022-11-03T17:09:18.259Z,952.83
2022-11-03T17:10:18.255Z,952.81
2022-11-03T17:11:18.396Z,952.77
2022-11-03T17:12:18.372Z,952.74
2022-11-03T17:13:18.353Z,952.73
2022-11-03T17:14:18.309Z,952.7
2022-11-03T17:15:18.369Z,952.67
2022-11-03T17:16:18.337Z,952.65
2022-11-03T17:17:18.270Z,952.62
2022-11-03T17:18:18.275Z,952.65
2022-11-03T17:19:18.275Z,952.63
2022-11-03T17:20:18.416Z,952.67
2022-11-03T17:21:18.380Z,952.64
2022-11-03T17:22:18.357Z,952.62
2022-11-03T17:23:18.406Z,952.59
2022-11-03T17:24:18.436Z,952.6
2022-11-03T17:25:18.342Z,952.64
2022-11-03T17:26:18.413Z,952.62
2022-11-03T17:27:18.289Z,952.61
2022-11-03T17:28:18.346Z,952.56
2022-11-03T17:30:18.478Z,952.53
2022-11-03T17:31:18.470Z,952.48
2022-11-03T17:32:19.450Z,952.47
2022-11-03T17:33:18.406Z,952.48
2022-11-03T17:34:19.451Z,952.46
2022-11-03T17:35:18.321Z,952.48
2022-11-03T17:36:18.400Z,952.41
2022-11-03T17:37:18.327Z,952.35
2022-11-03T17:38:18.439Z,952.37
2022-11-03T17:40:18.383Z,952.35
2022-11-03T17:41:19.022Z,952.37
2022-11-03T17:42:18.408Z,952.33
2022-11-03T17:43:18.484Z,952.26
2022-11-03T17:44:18.440Z,952.23
2022-11-03T17:45:18.412Z,952.22
2022-11-03T17:46:18.338Z,952.2
2022-11-03T17:47:18.362Z,952.17
2022-11-03T17:48:18.367Z,952.15
2022-11-03T17:49:18.343Z,952.16
2022-11-03T17:50:18.450Z,952.19
2022-11-03T17:51:18.354Z,952.21
2022-11-03T17:52:20.834Z,952.16
2022-11-03T17:53:18.602Z,952.1
2022-11-03T17:54:18.425Z,952.07
2022-11-03T17:55:18.492Z,952.01
2022-11-03T17:56:31.003Z,952
2022-11-03T17:57:18.367Z,951.99
2022-11-03T17:58:18.356Z,951.92
2022-11-03T17:59:18.455Z,951.89
2022-11-03T18:00:18.417Z,951.76
2022-11-03T18:01:18.523Z,951.7
2022-11-03T18:02:18.608Z,951.61
2022-11-03T18:04:18.492Z,951.55
2022-11-03T18:05:20.291Z,951.51
2022-11-03T18:06:18.658Z,951.49
2022-11-03T18:07:18.393Z,951.54
2022-11-03T18:08:18.471Z,951.58
2022-11-03T18:09:18.678Z,951.62
2022-11-03T18:10:18.507Z,951.64
2022-11-03T18:11:18.489Z,951.61
2022-11-03T18:12:18.473Z,951.55
2022-11-03T18:13:18.529Z,951.51
2022-11-03T18:14:18.511Z,951.52
2022-11-03T18:15:18.457Z,951.46
2022-11-03T18:16:18.530Z,951.51
2022-11-03T18:17:18.553Z,951.48
2022-11-03T18:18:18.659Z,951.47
2022-11-03T18:19:18.529Z,951.42
2022-11-03T18:20:18.492Z,951.43
2022-11-03T18:21:18.470Z,951.41
2022-11-03T18:22:18.416Z,951.39
2022-11-03T18:23:18.490Z,951.37
2022-11-03T18:24:18.433Z,951.36
2022-11-03T18:25:18.435Z,951.27
2022-11-03T18:26:18.500Z,951.25
2022-11-03T18:27:24.222Z,951.23
2022-11-03T18:28:18.683Z,951.21
2022-11-03T18:30:19.847Z,951.17
2022-11-03T18:31:18.571Z,951.19
2022-11-03T18:32:18.511Z,951.2
2022-11-03T18:33:19.791Z,951.17
2022-11-03T18:34:18.460Z,951.16
2022-11-03T18:35:18.718Z,951.09
2022-11-03T18:36:18.558Z,951.04
2022-11-03T18:37:18.472Z,951
2022-11-03T18:38:18.729Z,950.94
2022-11-03T18:39:18.467Z,950.96
2022-11-03T18:40:18.467Z,950.95
2022-11-03T18:41:19.871Z,950.99
2022-11-03T18:42:18.573Z,950.96
2022-11-03T18:43:18.553Z,950.94
2022-11-03T18:44:18.561Z,950.9
2022-11-03T18:45:18.588Z,950.86
2022-11-03T18:46:18.567Z,950.81
2022-11-03T18:47:18.737Z,950.78
2022-11-03T18:48:18.527Z,950.7
2022-11-03T18:50:19.966Z,950.69
2022-11-03T18:51:18.599Z,950.66
2022-11-03T18:52:18.505Z,950.68
2022-11-03T18:53:18.748Z,950.7
2022-11-03T18:55:18.591Z,950.75
2022-11-03T18:56:18.515Z,950.73
2022-11-03T18:57:18.598Z,950.74
2022-11-03T18:58:18.576Z,950.78
2022-11-03T18:59:20.001Z,950.73
2022-11-03T19:00:18.606Z,950.67
2022-11-03T19:01:18.704Z,950.61
2022-11-03T19:02:18.769Z,950.6
2022-11-03T19:03:18.526Z,950.59
2022-11-03T19:04:18.535Z,950.6
2022-11-03T19:05:18.534Z,950.58
2022-11-03T19:06:18.541Z,950.57
2022-11-03T19:07:18.532Z,950.54
2022-11-03T19:08:18.542Z,950.52
2022-11-03T19:10:19.529Z,950.55
2022-11-03T19:12:18.720Z,950.56
2022-11-03T19:13:18.745Z,950.53
2022-11-03T19:14:18.577Z,950.52
2022-11-03T19:15:18.647Z,950.55
2022-11-03T19:16:18.616Z,950.64
2022-11-03T19:17:23.256Z,950.66
2022-11-03T19:18:19.046Z,950.72
2022-11-03T19:19:19.602Z,950.7
2022-11-03T19:20:18.658Z,950.72
2022-11-03T19:21:18.640Z,950.76
2022-11-03T19:22:19.604Z,950.74
2022-11-03T19:23:18.651Z,950.81
2022-11-03T19:24:18.640Z,950.82
2022-11-03T19:25:18.842Z,950.85
2022-11-03T19:26:18.657Z,950.79
2022-11-03T19:27:18.651Z,950.75
2022-11-03T19:28:19.636Z,950.8
2022-11-03T19:29:18.654Z,950.83
2022-11-03T19:30:18.595Z,950.89
2022-11-03T19:31:19.641Z,950.88
2022-11-03T19:32:18.683Z,950.87
2022-11-03T19:33:18.656Z,950.89
2022-11-03T19:34:18.674Z,950.88
2022-11-03T19:35:18.661Z,950.91
2022-11-03T19:37:18.957Z,950.86
2022-11-03T19:38:18.790Z,950.88
2022-11-03T19:39:18.675Z,950.85
2022-11-03T19:40:18.688Z,950.88
2022-11-03T19:41:18.699Z,950.9
2022-11-03T19:42:18.617Z,950.91
2022-11-03T19:43:18.630Z,950.94
2022-11-03T19:45:19.799Z,950.96
2022-11-03T19:46:18.668Z,951.02
2022-11-03T19:47:18.632Z,951.09
2022-11-03T19:48:23.995Z,951.08
2022-11-03T19:49:19.026Z,951.07
2022-11-03T19:50:18.629Z,951.1
2022-11-03T19:51:18.645Z,951.12
2022-11-03T19:52:18.636Z,951.08
2022-11-03T19:53:18.639Z,951.05
2022-11-03T19:54:18.685Z,951.06
2022-11-03T19:55:18.855Z,951.01
2022-11-03T19:56:18.662Z,950.99
2022-11-03T19:57:18.664Z,950.98
2022-11-03T19:58:18.863Z,950.97
2022-11-03T19:59:18.724Z,950.96
2022-11-03T20:00:19.842Z,950.94
2022-11-03T20:01:18.978Z,950.92
2022-11-03T20:02:18.934Z,950.94
2022-11-03T20:03:18.789Z,950.98
2022-11-03T20:04:18.866Z,950.95
2022-11-03T20:05:18.713Z,951.01
2022-11-03T20:06:19.488Z,951
2022-11-03T20:07:18.674Z,951.05
2022-11-03T20:08:18.840Z,951.1
2022-11-03T20:09:19.933Z,951.16
2022-11-03T20:10:18.864Z,951.19
2022-11-03T20:12:18.779Z,951.18
2022-11-03T20:13:18.881Z,951.19
2022-11-03T20:14:18.844Z,951.23
2022-11-03T20:15:18.702Z,951.24
2022-11-03T20:16:18.879Z,951.21
2022-11-03T20:17:18.855Z,951.22
2022-11-03T20:18:18.707Z,951.2
2022-11-03T20:19:18.747Z,951.23
2022-11-03T20:20:18.854Z,951.2
2022-11-03T20:21:18.716Z,951.21
2022-11-03T20:22:18.725Z,951.23
2022-11-03T20:23:18.849Z,951.27
2022-11-03T20:24:18.720Z,951.26
2022-11-03T20:26:18.924Z,951.28
2022-11-03T20:27:18.853Z,951.3
2022-11-03T20:28:18.726Z,951.29
2022-11-03T20:29:18.868Z,951.28
2022-11-03T20:30:18.732Z,951.27
2022-11-03T20:32:20.043Z,951.29
2022-11-03T20:33:18.837Z,951.24
2022-11-03T20:34:18.943Z,951.22
2022-11-03T20:35:20.145Z,951.15
2022-11-03T20:36:18.883Z,951.16
2022-11-03T20:37:18.781Z,951.2
2022-11-03T20:39:20.576Z,951.24
2022-11-03T20:40:18.925Z,951.26
2022-11-03T20:41:18.877Z,951.34
2022-11-03T20:42:18.929Z,951.4
2022-11-03T20:43:18.927Z,951.46
2022-11-03T20:44:18.765Z,951.5
2022-11-03T20:45:18.771Z,951.57
2022-11-03T20:46:18.916Z,951.63
2022-11-03T20:47:20.134Z,951.66
2022-11-03T20:48:18.970Z,951.71
2022-11-03T20:49:18.771Z,951.76
2022-11-03T20:50:18.888Z,951.85
2022-11-03T20:51:18.801Z,951.87
2022-11-03T20:52:18.929Z,951.9
2022-11-03T20:53:18.785Z,951.96
2022-11-03T20:54:18.797Z,952
2022-11-03T20:55:18.934Z,952.03
2022-11-03T20:56:20.230Z,952.12
2022-11-03T20:57:18.801Z,952.15
2022-11-03T20:58:18.825Z,952.21
2022-11-03T20:59:18.905Z,952.29
2022-11-03T21:00:18.982Z,952.35
2022-11-03T21:01:18.877Z,952.4
2022-11-03T21:02:18.929Z,952.42
2022-11-03T21:03:45.477Z,952.5
2022-11-03T21:04:19.099Z,952.57
2022-11-03T21:05:19.021Z,952.61
2022-11-03T21:06:18.849Z,952.7
2022-11-03T21:07:20.245Z,952.71
2022-11-03T21:08:18.825Z,952.78
2022-11-03T21:09:18.846Z,952.75
2022-11-03T21:10:20.639Z,952.85
2022-11-03T21:11:19.312Z,952.88
2022-11-03T21:12:18.854Z,952.92
2022-11-03T21:13:20.293Z,952.97
2022-11-03T21:14:18.861Z,952.99
2022-11-03T21:15:19.004Z,953
2022-11-03T21:16:24.331Z,953.04
2022-11-03T21:17:19.046Z,953.05
2022-11-03T21:19:19.811Z,953.11
2022-11-03T21:20:19.027Z,953.07
2022-11-03T21:21:21.136Z,953.09
2022-11-03T21:22:38.204Z,953.13
2022-11-03T21:23:19.165Z,953.09
2022-11-03T21:24:19.069Z,953.18
2022-11-03T21:25:19.095Z,953.19
2022-11-03T21:26:18.909Z,953.22
2022-11-03T21:27:19.014Z,953.25
2022-11-03T21:28:18.984Z,953.21
2022-11-03T21:29:27.824Z,953.22
2022-11-03T21:30:18.906Z,953.21
2022-11-03T21:31:19.891Z,953.26
2022-11-03T21:32:18.870Z,953.27
2022-11-03T21:33:18.968Z,953.26
2022-11-03T21:34:19.094Z,953.25
2022-11-03T21:36:19.019Z,953.3
2022-11-03T21:37:18.910Z,953.27
2022-11-03T21:38:18.916Z,953.22
2022-11-03T21:39:19.048Z,953.25
2022-11-03T21:40:18.967Z,953.32
2022-11-03T21:41:18.891Z,953.38
2022-11-03T21:42:18.916Z,953.32
2022-11-03T21:43:19.092Z,953.38
2022-11-03T21:44:18.925Z,953.37
2022-11-03T21:45:19.037Z,953.42
2022-11-03T21:46:18.912Z,953.43
2022-11-03T21:47:18.928Z,953.49
2022-11-03T21:48:20.550Z,953.55
2022-11-03T21:49:19.111Z,953.64
2022-11-03T21:50:18.914Z,953.66
2022-11-03T21:51:19.044Z,953.71
2022-11-03T21:53:19.076Z,953.74
2022-11-03T21:54:18.939Z,953.71
2022-11-03T21:55:18.969Z,953.77
2022-11-03T21:56:18.935Z,953.79
2022-11-03T21:58:20.213Z,953.82
2022-11-03T21:59:18.940Z,953.85
2022-11-03T22:00:18.950Z,953.89
2022-11-03T22:01:19.254Z,953.91
2022-11-03T22:02:18.995Z,953.92
2022-11-03T22:03:20.080Z,953.93
2022-11-03T22:04:18.949Z,953.97
2022-11-03T22:05:19.103Z,953.95
2022-11-03T22:06:18.965Z,953.97
2022-11-03T22:07:19.136Z,954.05
2022-11-03T22:08:19.095Z,954.03
2022-11-03T22:10:19.141Z,953.99
2022-11-03T22:11:19.019Z,954
2022-11-03T22:12:19.075Z,953.92
2022-11-03T22:13:19.144Z,953.89
2022-11-03T22:14:18.998Z,953.85
2022-11-03T22:16:19.186Z,953.83
2022-11-03T22:17:19.117Z,953.84
2022-11-03T22:18:19.183Z,953.87
2022-11-03T22:19:19.154Z,953.78
2022-11-03T22:20:18.999Z,953.82
2022-11-03T22:21:19.083Z,953.8
2022-11-03T22:22:19.147Z,953.83
2022-11-03T22:23:19.123Z,953.88
2022-11-03T22:24:20.209Z,953.95
2022-11-03T22:25:19.015Z,954
2022-11-03T22:26:19.123Z,954.06
2022-11-03T22:27:18.997Z,954.08
2022-11-03T22:28:19.437Z,954.05
2022-11-03T22:29:19.016Z,954.07
2022-11-03T22:30:19.201Z,954.1
2022-11-03T22:31:19.007Z,954.11
2022-11-03T22:32:19.133Z,954.1
2022-11-03T22:33:19.206Z,954.08
2022-11-03T22:34:19.212Z,954.07
2022-11-03T22:35:19.033Z,954.1
2022-11-03T22:36:21.855Z,954.08
2022-11-03T22:37:19.481Z,954.13
2022-11-03T22:38:19.175Z,954.11
2022-11-03T22:39:19.204Z,954.14
2022-11-03T22:40:19.047Z,954.13
2022-11-03T22:41:20.313Z,954.17
2022-11-03T22:42:19.207Z,954.2
2022-11-03T22:43:19.058Z,954.28
2022-11-03T22:44:20.329Z,954.29
2022-11-03T22:46:19.128Z,954.34
2022-11-03T22:47:19.211Z,954.29
2022-11-03T22:48:19.107Z,954.28
2022-11-03T22:49:19.066Z,954.29
2022-11-03T22:50:20.384Z,954.32
2022-11-03T22:51:19.061Z,954.36
2022-11-03T22:52:19.074Z,954.35
2022-11-03T22:53:19.077Z,954.36
2022-11-03T22:54:19.081Z,954.41
2022-11-03T22:56:19.155Z,954.38
2022-11-03T22:57:19.109Z,954.32
2022-11-03T22:58:19.200Z,954.29
2022-11-03T22:59:19.272Z,954.35
2022-11-03T23:00:19.089Z,954.36
2022-11-03T23:01:19.334Z,954.33
2022-11-03T23:02:19.233Z,954.37
2022-11-03T23:03:19.096Z,954.35
2022-11-03T23:04:19.133Z,954.42
2022-11-03T23:05:19.278Z,954.41
2022-11-03T23:06:19.111Z,954.4
2022-11-03T23:07:19.100Z,954.35
2022-11-03T23:08:19.184Z,954.38
2022-11-03T23:09:19.112Z,954.35
2022-11-03T23:10:19.108Z,954.36
2022-11-03T23:11:19.111Z,954.34
2022-11-03T23:12:19.113Z,954.41
2022-11-03T23:13:19.120Z,954.44
2022-11-03T23:15:19.117Z,954.45
2022-11-03T23:16:19.119Z,954.47
2022-11-03T23:17:19.124Z,954.46
2022-11-03T23:18:19.120Z,954.45
2022-11-03T23:19:19.132Z,954.46
2022-11-03T23:20:19.135Z,954.42
2022-11-03T23:21:19.134Z,954.41
2022-11-03T23:22:19.131Z,954.38
2022-11-03T23:23:19.132Z,954.39
2022-11-03T23:24:19.138Z,954.37
2022-11-03T23:25:19.136Z,954.36
2022-11-03T23:26:19.140Z,954.32
2022-11-03T23:27:19.152Z,954.29
2022-11-03T23:28:19.149Z,954.23
2022-11-03T23:29:19.151Z,954.25
2022-11-03T23:30:19.146Z,954.16
2022-11-03T23:31:19.146Z,954.14
2022-11-03T23:32:19.145Z,954.17
2022-11-03T23:33:19.171Z,954.16
2022-11-03T23:34:19.166Z,954.15
2022-11-03T23:35:19.176Z,954.19
2022-11-03T23:36:19.172Z,954.2
2022-11-03T23:39:19.257Z,954.23
2022-11-03T23:40:20.579Z,954.24
2022-11-03T23:41:19.668Z,954.25
2022-11-03T23:43:19.189Z,954.28
2022-11-03T23:44:19.180Z,954.3
2022-11-03T23:45:19.195Z,954.32
2022-11-03T23:46:19.210Z,954.36
2022-11-03T23:47:19.208Z,954.37
2022-11-03T23:48:19.190Z,954.36
2022-11-03T23:49:19.194Z,954.4
2022-11-03T23:50:19.198Z,954.41
2022-11-03T23:51:19.221Z,954.38
2022-11-03T23:54:19.290Z,954.34
2022-11-03T23:55:19.215Z,954.32
2022-11-03T23:56:19.360Z,954.3
2022-11-03T23:57:19.221Z,954.27
2022-11-03T23:58:19.223Z,954.28
2022-11-03T23:59:19.228Z,954.25
